sensor_id;sensor_type;location;lat;lon;timestamp;pressure;altitude;pressure_sealevel;temperature;humidity
62617;BME280;62539;51.190;6.808;2023-04-09T00:01:07;102212.22;;;19.94;55.53
62617;BME280;62539;51.190;6.808;2023-04-09T00:03:35;102219.28;;;19.92;55.36
62617;BME280;62539;51.190;6.808;2023-04-09T00:06:02;102213.16;;;19.90;55.38
62617;BME280;62539;51.190;6.808;2023-04-09T00:08:28;102214.94;;;19.88;55.67
62617;BME280;62539;51.190;6.808;2023-04-09T00:10:54;102210.56;;;19.87;55.71
62617;BME280;62539;51.190;6.808;2023-04-09T00:13:21;102214.97;;;19.85;55.84
62617;BME280;62539;51.190;6.808;2023-04-09T00:15:46;102214.97;;;19.85;55.83
62617;BME280;62539;51.190;6.808;2023-04-09T00:18:13;102211.50;;;19.83;55.84
62617;BME280;62539;51.190;6.808;2023-04-09T00:20:39;102213.28;;;19.81;55.91
62617;BME280;62539;51.190;6.808;2023-04-09T00:23:04;102214.19;;;19.80;55.89
62617;BME280;62539;51.190;6.808;2023-04-09T00:25:30;102205.44;;;19.78;55.74
62617;BME280;62539;51.190;6.808;2023-04-09T00:27:55;102207.22;;;19.77;55.68
62617;BME280;62539;51.190;6.808;2023-04-09T00:30:21;102202.88;;;19.75;56.00
62617;BME280;62539;51.190;6.808;2023-04-09T00:32:47;102206.41;;;19.74;55.82
62617;BME280;62539;51.190;6.808;2023-04-09T00:35:13;102208.19;;;19.72;55.99
62617;BME280;62539;51.190;6.808;2023-04-09T00:37:41;102205.59;;;19.70;55.80
62617;BME280;62539;51.190;6.808;2023-04-09T00:40:07;102203.84;;;19.69;55.92
62617;BME280;62539;51.190;6.808;2023-04-09T00:42:33;102202.13;;;19.66;55.98
62617;BME280;62539;51.190;6.808;2023-04-09T00:45:00;102209.16;;;19.66;55.77
62617;BME280;62539;51.190;6.808;2023-04-09T00:47:26;102204.81;;;19.63;56.21
62617;BME280;62539;51.190;6.808;2023-04-09T00:49:54;102203.97;;;19.61;55.99
62617;BME280;62539;51.190;6.808;2023-04-09T00:52:21;102202.22;;;19.60;56.03
62617;BME280;62539;51.190;6.808;2023-04-09T00:54:49;102206.66;;;19.58;56.06
62617;BME280;62539;51.190;6.808;2023-04-09T00:57:15;102197.06;;;19.56;56.00
62617;BME280;62539;51.190;6.808;2023-04-09T00:59:42;102193.53;;;19.55;56.09
62617;BME280;62539;51.190;6.808;2023-04-09T01:02:09;102201.47;;;19.52;55.99
62617;BME280;62539;51.190;6.808;2023-04-09T01:04:35;102200.63;;;19.50;56.04
62617;BME280;62539;51.190;6.808;2023-04-09T01:10:34;102196.31;;;19.46;56.09
62617;BME280;62539;51.190;6.808;2023-04-09T01:13:17;102198.09;;;19.44;56.17
62617;BME280;62539;51.190;6.808;2023-04-09T01:15:53;102192.88;;;19.41;56.19
62617;BME280;62539;51.190;6.808;2023-04-09T01:18:26;102194.66;;;19.38;56.16
62617;BME280;62539;51.190;6.808;2023-04-09T01:21:01;102181.56;;;19.37;56.17
62617;BME280;62539;51.190;6.808;2023-04-09T01:23:46;102192.97;;;19.34;56.14
62617;BME280;62539;51.190;6.808;2023-04-09T01:26:55;102189.50;;;19.32;56.43
62617;BME280;62539;51.190;6.808;2023-04-09T01:29:31;102191.28;;;19.30;56.34
62617;BME280;62539;51.190;6.808;2023-04-09T01:32:01;102188.69;;;19.29;56.43
62617;BME280;62539;51.190;6.808;2023-04-09T01:34:29;102184.31;;;19.28;56.40
62617;BME280;62539;51.190;6.808;2023-04-09T01:36:58;102182.59;;;19.25;56.47
62617;BME280;62539;51.190;6.808;2023-04-09T01:39:26;102192.25;;;19.24;56.43
62617;BME280;62539;51.190;6.808;2023-04-09T01:41:53;102190.53;;;19.23;56.46
62617;BME280;62539;51.190;6.808;2023-04-09T01:44:20;102192.25;;;19.23;56.44
62617;BME280;62539;51.190;6.808;2023-04-09T01:46:49;102191.41;;;19.21;56.42
62617;BME280;62539;51.190;6.808;2023-04-09T01:49:16;102194.94;;;19.20;56.37
62617;BME280;62539;51.190;6.808;2023-04-09T01:51:42;102201.97;;;19.19;56.44
62617;BME280;62539;51.190;6.808;2023-04-09T01:54:08;102191.47;;;19.18;56.38
62617;BME280;62539;51.190;6.808;2023-04-09T01:56:43;102191.50;;;19.16;56.50
62617;BME280;62539;51.190;6.808;2023-04-09T01:59:10;102199.41;;;19.16;56.55
62617;BME280;62539;51.190;6.808;2023-04-09T02:01:47;102198.53;;;19.14;56.56
62617;BME280;62539;51.190;6.808;2023-04-09T02:09:36;102201.22;;;19.11;56.61
62617;BME280;62539;51.190;6.808;2023-04-09T02:12:08;102203.84;;;19.09;56.54
62617;BME280;62539;51.190;6.808;2023-04-09T02:14:37;102193.38;;;19.08;56.60
62617;BME280;62539;51.190;6.808;2023-04-09T02:17:04;102195.13;;;19.07;56.50
62617;BME280;62539;51.190;6.808;2023-04-09T02:19:40;102185.50;;;19.06;56.66
62617;BME280;62539;51.190;6.808;2023-04-09T02:22:07;102189.84;;;19.07;56.49
62617;BME280;62539;51.190;6.808;2023-04-09T02:24:33;102186.38;;;19.05;56.68
62617;BME280;62539;51.190;6.808;2023-04-09T02:26:59;102175.84;;;19.05;56.58
62617;BME280;62539;51.190;6.808;2023-04-09T02:29:26;102178.53;;;19.04;56.71
62617;BME280;62539;51.190;6.808;2023-04-09T02:31:51;102177.63;;;19.03;56.66
62617;BME280;62539;51.190;6.808;2023-04-09T02:34:17;102178.53;;;19.02;56.69
62617;BME280;62539;51.190;6.808;2023-04-09T02:36:43;102178.56;;;19.01;56.58
62617;BME280;62539;51.190;6.808;2023-04-09T02:39:09;102172.41;;;19.00;56.59
62617;BME280;62539;51.190;6.808;2023-04-09T02:41:34;102174.22;;;18.98;56.62
62617;BME280;62539;51.190;6.808;2023-04-09T02:43:59;102177.72;;;18.97;56.54
62617;BME280;62539;51.190;6.808;2023-04-09T02:46:25;102166.34;;;18.97;56.62
62617;BME280;62539;51.190;6.808;2023-04-09T02:48:50;102169.84;;;18.95;56.65
62617;BME280;62539;51.190;6.808;2023-04-09T02:51:16;102161.97;;;18.94;56.65
62617;BME280;62539;51.190;6.808;2023-04-09T02:53:41;102163.72;;;18.93;56.52
62617;BME280;62539;51.190;6.808;2023-04-09T02:56:06;102162.00;;;18.91;56.47
62617;BME280;62539;51.190;6.808;2023-04-09T02:58:32;102166.41;;;18.89;56.53
62617;BME280;62539;51.190;6.808;2023-04-09T03:00:57;102162.03;;;18.89;56.55
62617;BME280;62539;51.190;6.808;2023-04-09T03:03:23;102162.03;;;18.88;56.56
62617;BME280;62539;51.190;6.808;2023-04-09T03:05:48;102159.44;;;18.86;56.66
62617;BME280;62539;51.190;6.808;2023-04-09T03:08:13;102159.47;;;18.85;56.55
62617;BME280;62539;51.190;6.808;2023-04-09T03:10:39;102155.09;;;18.84;56.59
62617;BME280;62539;51.190;6.808;2023-04-09T03:13:04;102156.88;;;18.81;56.53
62617;BME280;62539;51.190;6.808;2023-04-09T03:15:29;102163.91;;;18.81;56.63
62617;BME280;62539;51.190;6.808;2023-04-09T03:17:55;102153.38;;;18.79;56.51
62617;BME280;62539;51.190;6.808;2023-04-09T03:20:20;102151.66;;;18.78;56.61
62617;BME280;62539;51.190;6.808;2023-04-09T03:22:46;102152.53;;;18.77;56.71
62617;BME280;62539;51.190;6.808;2023-04-09T03:25:11;102153.44;;;18.76;56.67
62617;BME280;62539;51.190;6.808;2023-04-09T03:27:37;102145.59;;;18.75;56.47
62617;BME280;62539;51.190;6.808;2023-04-09T03:30:02;102151.72;;;18.72;56.44
62617;BME280;62539;51.190;6.808;2023-04-09T03:32:28;102143.84;;;18.72;56.63
62617;BME280;62539;51.190;6.808;2023-04-09T03:34:54;102143.88;;;18.71;56.78
62617;BME280;62539;51.190;6.808;2023-04-09T03:37:20;102146.50;;;18.69;56.62
62617;BME280;62539;51.190;6.808;2023-04-09T03:39:45;102142.16;;;18.68;56.48
62617;BME280;62539;51.190;6.808;2023-04-09T03:42:10;102141.31;;;18.66;56.71
62617;BME280;62539;51.190;6.808;2023-04-09T03:44:36;102144.81;;;18.65;56.52
62617;BME280;62539;51.190;6.808;2023-04-09T03:47:01;102139.56;;;18.65;56.71
62617;BME280;62539;51.190;6.808;2023-04-09T03:49:27;102136.09;;;18.63;56.77
62617;BME280;62539;51.190;6.808;2023-04-09T03:51:53;102128.22;;;18.61;56.52
62617;BME280;62539;51.190;6.808;2023-04-09T03:54:18;102136.13;;;18.60;56.84
62617;BME280;62539;51.190;6.808;2023-04-09T03:56:43;102138.78;;;18.58;56.77
62617;BME280;62539;51.190;6.808;2023-04-09T03:59:09;102136.16;;;18.57;56.59
62617;BME280;62539;51.190;6.808;2023-04-09T04:01:35;102142.31;;;18.57;56.73
62617;BME280;62539;51.190;6.808;2023-04-09T04:04:00;102137.97;;;18.55;56.64
62617;BME280;62539;51.190;6.808;2023-04-09T04:06:26;102137.09;;;18.54;56.76
62617;BME280;62539;51.190;6.808;2023-04-09T04:08:51;102129.25;;;18.53;56.85
62617;BME280;62539;51.190;6.808;2023-04-09T04:11:17;102135.34;;;18.55;56.60
62617;BME280;62539;51.190;6.808;2023-04-09T04:13:42;102129.13;;;18.59;56.29
62617;BME280;62539;51.190;6.808;2023-04-09T04:16:08;102139.56;;;18.65;56.13
62617;BME280;62539;51.190;6.808;2023-04-09T04:18:35;102143.00;;;18.70;56.02
62617;BME280;62539;51.190;6.808;2023-04-09T04:21:00;102142.06;;;18.74;56.05
62617;BME280;62539;51.190;6.808;2023-04-09T04:23:26;102142.88;;;18.79;56.00
62617;BME280;62539;51.190;6.808;2023-04-09T04:25:51;102137.56;;;18.84;56.22
62617;BME280;62539;51.190;6.808;2023-04-09T04:28:22;102138.38;;;18.89;56.41
62617;BME280;62539;51.190;6.808;2023-04-09T04:30:47;102143.56;;;18.94;56.02
62617;BME280;62539;51.190;6.808;2023-04-09T04:33:12;102140.03;;;18.98;56.15
62617;BME280;62539;51.190;6.808;2023-04-09T04:35:38;102141.72;;;19.04;56.26
62617;BME280;62539;51.190;6.808;2023-04-09T04:38:03;102135.50;;;19.06;56.09
62617;BME280;62539;51.190;6.808;2023-04-09T04:40:29;102137.22;;;19.10;55.96
62617;BME280;62539;51.190;6.808;2023-04-09T04:42:54;102139.84;;;19.12;56.04
62617;BME280;62539;51.190;6.808;2023-04-09T04:45:19;102145.03;;;19.15;56.03
62617;BME280;62539;51.190;6.808;2023-04-09T04:47:45;102148.53;;;19.16;56.09
62617;BME280;62539;51.190;6.808;2023-04-09T04:50:10;102149.41;;;19.16;56.03
62617;BME280;62539;51.190;6.808;2023-04-09T04:52:36;102153.78;;;19.17;56.10
62617;BME280;62539;51.190;6.808;2023-04-09T04:55:03;102152.00;;;19.18;56.05
62617;BME280;62539;51.190;6.808;2023-04-09T04:57:28;102160.78;;;19.18;56.04
62617;BME280;62539;51.190;6.808;2023-04-09T04:59:54;102151.13;;;19.19;55.66
62617;BME280;62539;51.190;6.808;2023-04-09T05:02:19;102159.84;;;19.21;55.44
62617;BME280;62539;51.190;6.808;2023-04-09T05:04:45;102151.06;;;19.22;55.53
62617;BME280;62539;51.190;6.808;2023-04-09T05:07:10;102156.31;;;19.22;55.78
62617;BME280;62539;51.190;6.808;2023-04-09T05:09:35;102150.16;;;19.23;55.75
62617;BME280;62539;51.190;6.808;2023-04-09T05:12:01;102153.69;;;19.23;55.67
62617;BME280;62539;51.190;6.808;2023-04-09T05:14:27;102154.53;;;19.24;55.67
62617;BME280;62539;51.190;6.808;2023-04-09T05:16:52;102158.06;;;19.23;55.75
62617;BME280;62539;51.190;6.808;2023-04-09T05:19:17;102158.06;;;19.23;55.28
62617;BME280;62539;51.190;6.808;2023-04-09T05:21:43;102151.94;;;19.22;54.90
62617;BME280;62539;51.190;6.808;2023-04-09T05:24:08;102156.31;;;19.22;54.80
62617;BME280;62539;51.190;6.808;2023-04-09T05:26:33;102158.06;;;19.23;54.95
62617;BME280;62539;51.190;6.808;2023-04-09T05:28:59;102161.53;;;19.25;55.13
62617;BME280;62539;51.190;6.808;2023-04-09T05:31:24;102158.91;;;19.25;55.04
62617;BME280;62539;51.190;6.808;2023-04-09T05:33:50;102162.38;;;19.29;55.17
62617;BME280;62539;51.190;6.808;2023-04-09T05:36:17;102162.34;;;19.32;55.19
62617;BME280;62539;51.190;6.808;2023-04-09T05:38:45;102161.41;;;19.34;55.17
62617;BME280;62539;51.190;6.808;2023-04-09T05:41:11;102164.03;;;19.36;55.26
62617;BME280;62539;51.190;6.808;2023-04-09T05:43:37;102162.22;;;19.38;55.47
62617;BME280;62539;51.190;6.808;2023-04-09T05:46:03;102165.72;;;19.38;55.13
62617;BME280;62539;51.190;6.808;2023-04-09T05:48:28;102157.81;;;19.40;55.22
62617;BME280;62539;51.190;6.808;2023-04-09T05:50:54;102163.09;;;19.38;55.21
62617;BME280;62539;51.190;6.808;2023-04-09T05:53:19;102159.56;;;19.39;55.26
62617;BME280;62539;51.190;6.808;2023-04-09T05:55:46;102158.72;;;19.39;55.41
62617;BME280;62539;51.190;6.808;2023-04-09T05:58:13;102167.47;;;19.39;55.02
62617;BME280;62539;51.190;6.808;2023-04-09T06:00:39;102162.19;;;19.39;55.05
62617;BME280;62539;51.190;6.808;2023-04-09T06:03:07;102161.31;;;19.41;54.88
62617;BME280;62539;51.190;6.808;2023-04-09T06:05:33;102159.56;;;19.41;55.02
62617;BME280;62539;51.190;6.808;2023-04-09T06:07:58;102159.50;;;19.43;55.01
62617;BME280;62539;51.190;6.808;2023-04-09T06:10:23;102155.97;;;19.45;55.06
62617;BME280;62539;51.190;6.808;2023-04-09T06:12:49;102162.94;;;19.48;54.69
62617;BME280;62539;51.190;6.808;2023-04-09T06:15:15;102162.03;;;19.50;55.00
62617;BME280;62539;51.190;6.808;2023-04-09T06:17:40;102162.00;;;19.52;55.01
62617;BME280;62539;51.190;6.808;2023-04-09T06:20:06;102155.84;;;19.53;54.98
62617;BME280;62539;51.190;6.808;2023-04-09T06:22:32;102161.06;;;19.56;55.23
62617;BME280;62539;51.190;6.808;2023-04-09T06:24:57;102174.22;;;19.56;54.71
62617;BME280;62539;51.190;6.808;2023-04-09T06:27:23;102172.44;;;19.58;54.78
62617;BME280;62539;51.190;6.808;2023-04-09T06:29:48;102175.91;;;19.60;54.71
62617;BME280;62539;51.190;6.808;2023-04-09T06:32:14;102167.94;;;19.63;54.87
62617;BME280;62539;51.190;6.808;2023-04-09T06:34:39;102164.44;;;19.64;54.68
62617;BME280;62539;51.190;6.808;2023-04-09T06:37:05;102165.28;;;19.66;54.69
62617;BME280;62539;51.190;6.808;2023-04-09T06:39:30;102170.53;;;19.68;54.54
62617;BME280;62539;51.190;6.808;2023-04-09T06:41:57;102173.13;;;19.69;54.51
62617;BME280;62539;51.190;6.808;2023-04-09T06:44:22;102172.22;;;19.71;54.55
62617;BME280;62539;51.190;6.808;2023-04-09T06:46:48;102173.06;;;19.73;54.62
62617;BME280;62539;51.190;6.808;2023-04-09T06:49:13;102171.31;;;19.73;54.41
62617;BME280;62539;51.190;6.808;2023-04-09T06:51:39;102177.41;;;19.75;54.46
62617;BME280;62539;51.190;6.808;2023-04-09T06:54:05;102180.00;;;19.77;54.31
62617;BME280;62539;51.190;6.808;2023-04-09T06:56:30;102180.00;;;19.77;54.22
62617;BME280;62539;51.190;6.808;2023-04-09T06:58:55;102179.13;;;19.78;54.17
62617;BME280;62539;51.190;6.808;2023-04-09T07:01:21;102183.50;;;19.79;54.19
62617;BME280;62539;51.190;6.808;2023-04-09T07:03:46;102183.50;;;19.79;54.30
62617;BME280;62539;51.190;6.808;2023-04-09T07:06:11;102180.84;;;19.79;54.28
62617;BME280;62539;51.190;6.808;2023-04-09T07:08:37;102183.50;;;19.79;54.37
62617;BME280;62539;51.190;6.808;2023-04-09T07:11:02;102187.84;;;19.80;54.36
62617;BME280;62539;51.190;6.808;2023-04-09T07:13:28;102183.50;;;19.79;54.19
62617;BME280;62539;51.190;6.808;2023-04-09T07:15:53;102185.28;;;19.77;53.74
62617;BME280;62539;51.190;6.808;2023-04-09T07:18:19;102188.81;;;19.76;53.42
62617;BME280;62539;51.190;6.808;2023-04-09T07:20:44;102187.94;;;19.75;53.21
62617;BME280;62539;51.190;6.808;2023-04-09T07:23:10;102193.22;;;19.75;53.09
62617;BME280;62539;51.190;6.808;2023-04-09T07:25:36;102182.66;;;19.77;53.01
62617;BME280;62539;51.190;6.808;2023-04-09T07:28:01;102182.66;;;19.77;52.92
62617;BME280;62539;51.190;6.808;2023-04-09T07:30:27;102192.28;;;19.78;52.69
62617;BME280;62539;51.190;6.808;2023-04-09T07:32:52;102197.53;;;19.78;52.68
62617;BME280;62539;51.190;6.808;2023-04-09T07:35:18;102187.91;;;19.77;52.43
62617;BME280;62539;51.190;6.808;2023-04-09T07:37:43;102185.28;;;19.78;52.35
62617;BME280;62539;51.190;6.808;2023-04-09T07:40:09;102187.00;;;19.78;52.30
62617;BME280;62539;51.190;6.808;2023-04-09T07:42:38;102189.66;;;19.78;52.29
62617;BME280;62539;51.190;6.808;2023-04-09T07:45:05;102192.28;;;19.78;52.02
62617;BME280;62539;51.190;6.808;2023-04-09T07:47:31;102187.91;;;19.77;51.95
62617;BME280;62539;51.190;6.808;2023-04-09T07:49:57;102194.06;;;19.76;51.92
62617;BME280;62539;51.190;6.808;2023-04-09T07:52:22;102193.19;;;19.77;51.71
62617;BME280;62539;51.190;6.808;2023-04-09T07:54:48;102199.34;;;19.76;51.57
62617;BME280;62539;51.190;6.808;2023-04-09T07:57:13;102192.34;;;19.75;51.38
62617;BME280;62539;51.190;6.808;2023-04-09T07:59:38;102202.88;;;19.75;51.48
62617;BME280;62539;51.190;6.808;2023-04-09T08:02:04;102201.97;;;19.76;51.35
62617;BME280;62539;51.190;6.808;2023-04-09T08:04:30;102196.69;;;19.77;51.46
62617;BME280;62539;51.190;6.808;2023-04-09T08:06:55;102195.81;;;19.78;51.28
62617;BME280;62539;51.190;6.808;2023-04-09T08:09:21;102192.28;;;19.79;51.30
62617;BME280;62539;51.190;6.808;2023-04-09T08:11:47;102200.13;;;19.81;51.03
62617;BME280;62539;51.190;6.808;2023-04-09T08:14:14;102191.34;;;19.82;51.01
62617;BME280;62539;51.190;6.808;2023-04-09T08:16:42;102195.72;;;19.83;51.04
62617;BME280;62539;51.190;6.808;2023-04-09T08:19:10;102196.53;;;19.87;51.02
62617;BME280;62539;51.190;6.808;2023-04-09T08:21:40;102196.53;;;19.90;51.06
62617;BME280;62539;51.190;6.808;2023-04-09T08:24:10;102202.59;;;19.93;51.06
62617;BME280;62539;51.190;6.808;2023-04-09T08:26:39;102192.00;;;19.96;51.40
62617;BME280;62539;51.190;6.808;2023-04-09T08:29:06;102199.84;;;20.00;51.18
62617;BME280;62539;51.190;6.808;2023-04-09T08:31:33;102189.25;;;20.03;50.99
62617;BME280;62539;51.190;6.808;2023-04-09T08:33:59;102200.63;;;20.05;51.09
62617;BME280;62539;51.190;6.808;2023-04-09T08:36:24;102197.94;;;20.08;51.51
62617;BME280;62539;51.190;6.808;2023-04-09T08:38:50;102197.88;;;20.12;51.37
62617;BME280;62539;51.190;6.808;2023-04-09T08:41:24;102203.94;;;20.16;51.26
62617;BME280;62539;51.190;6.808;2023-04-09T08:43:55;102206.50;;;20.19;51.37
62617;BME280;62539;51.190;6.808;2023-04-09T08:46:21;102198.56;;;20.22;51.65
62617;BME280;62539;51.190;6.808;2023-04-09T08:48:49;102198.50;;;20.25;51.51
62617;BME280;62539;51.190;6.808;2023-04-09T08:51:18;102207.19;;;20.31;51.49
62617;BME280;62539;51.190;6.808;2023-04-09T08:53:47;102201.84;;;20.34;51.35
62617;BME280;62539;51.190;6.808;2023-04-09T08:56:16;102211.41;;;20.39;51.50
62617;BME280;62539;51.190;6.808;2023-04-09T08:58:43;102204.28;;;20.45;51.25
62617;BME280;62539;51.190;6.808;2023-04-09T09:01:26;102213.81;;;20.50;50.93
62617;BME280;62539;51.190;6.808;2023-04-09T09:03:58;102206.75;;;20.52;51.05
62617;BME280;62539;51.190;6.808;2023-04-09T09:06:27;102203.16;;;20.56;51.16
62617;BME280;62539;51.190;6.808;2023-04-09T09:11:33;102195.91;;;20.68;51.34
62617;BME280;62539;51.190;6.808;2023-04-09T09:14:01;102200.19;;;20.74;51.64
62617;BME280;62539;51.190;6.808;2023-04-09T09:16:33;102193.94;;;20.79;51.36
62617;BME280;62539;51.190;6.808;2023-04-09T09:19:01;102193.00;;;20.82;51.00
62617;BME280;62539;51.190;6.808;2023-04-09T09:21:28;102193.75;;;20.89;51.30
62617;BME280;62539;51.190;6.808;2023-04-09T09:23:54;102193.66;;;20.93;51.37
62617;BME280;62539;51.190;6.808;2023-04-09T09:26:22;102186.53;;;20.97;51.64
62617;BME280;62539;51.190;6.808;2023-04-09T09:28:50;102180.28;;;21.01;51.57
62617;BME280;62539;51.190;6.808;2023-04-09T09:31:18;102184.56;;;21.05;51.35
62617;BME280;62539;51.190;6.808;2023-04-09T09:33:46;102182.69;;;21.10;51.45
62617;BME280;62539;51.190;6.808;2023-04-09T09:36:13;102180.00;;;21.13;51.04
62617;BME280;62539;51.190;6.808;2023-04-09T09:38:56;102175.53;;;21.15;51.24
62617;BME280;62539;51.190;6.808;2023-04-09T09:41:23;102174.53;;;21.21;51.27
62617;BME280;62539;51.190;6.808;2023-04-09T09:43:50;102177.06;;;21.26;51.00
62617;BME280;62539;51.190;6.808;2023-04-09T09:46:16;102171.66;;;21.30;50.85
62617;BME280;62539;51.190;6.808;2023-04-09T09:48:42;102174.22;;;21.35;51.21
62617;BME280;62539;51.190;6.808;2023-04-09T09:51:11;102162.66;;;21.39;50.95
62617;BME280;62539;51.190;6.808;2023-04-09T09:53:39;102159.06;;;21.43;50.87
62617;BME280;62539;51.190;6.808;2023-04-09T09:56:13;102159.81;;;21.47;50.81
62617;BME280;62539;51.190;6.808;2023-04-09T09:58:44;102165.00;;;21.52;50.67
62617;BME280;62539;51.190;6.808;2023-04-09T10:01:32;102156.94;;;21.58;50.60
62617;BME280;62539;51.190;6.808;2023-04-09T10:03:59;102157.72;;;21.63;50.79
62617;BME280;62539;51.190;6.808;2023-04-09T10:06:27;102154.03;;;21.69;50.66
62617;BME280;62539;51.190;6.808;2023-04-09T10:08:56;102142.47;;;21.75;50.74
62617;BME280;62539;51.190;6.808;2023-04-09T10:11:23;102140.56;;;21.80;50.77
62617;BME280;62539;51.190;6.808;2023-04-09T10:13:50;102143.94;;;21.85;50.50
62617;BME280;62539;51.190;6.808;2023-04-09T10:16:20;102145.53;;;21.91;50.20
62617;BME280;62539;51.190;6.808;2023-04-09T10:18:47;102142.72;;;21.97;50.20
62617;BME280;62539;51.190;6.808;2023-04-09T10:21:41;102148.75;;;22.02;50.34
62617;BME280;62539;51.190;6.808;2023-04-09T10:24:13;102138.91;;;22.09;50.01
62617;BME280;62539;51.190;6.808;2023-04-09T10:26:41;102152.03;;;22.12;49.94
62617;BME280;62539;51.190;6.808;2023-04-09T10:29:13;102144.84;;;22.17;49.79
62617;BME280;62539;51.190;6.808;2023-04-09T10:31:53;102142.03;;;22.23;49.91
62617;BME280;62539;51.190;6.808;2023-04-09T10:34:28;102147.16;;;22.28;50.00
62617;BME280;62539;51.190;6.808;2023-04-09T10:36:58;102145.25;;;22.33;49.46
62617;BME280;62539;51.190;6.808;2023-04-09T10:39:27;102142.44;;;22.39;49.47
62617;BME280;62539;51.190;6.808;2023-04-09T10:41:57;102138.78;;;22.45;49.61
62617;BME280;62539;51.190;6.808;2023-04-09T10:44:25;102144.75;;;22.52;49.46
62617;BME280;62539;51.190;6.808;2023-04-09T10:46:55;102141.88;;;22.59;49.37
62617;BME280;62539;51.190;6.808;2023-04-09T10:49:25;102129.34;;;22.66;49.12
62617;BME280;62539;51.190;6.808;2023-04-09T10:59:38;102123.72;;;22.77;48.13
62617;BME280;62539;51.190;6.808;2023-04-09T11:02:08;102123.47;;;22.85;48.07
62617;BME280;62539;51.190;6.808;2023-04-09T11:07:26;102108.13;;;22.96;47.73
62617;BME280;62539;51.190;6.808;2023-04-09T11:09:54;102115.84;;;23.02;47.68
62617;BME280;62539;51.190;6.808;2023-04-09T11:12:19;102116.38;;;23.14;47.70
62617;BME280;62539;51.190;6.808;2023-04-09T11:14:45;102112.56;;;23.23;47.04
62617;BME280;62539;51.190;6.808;2023-04-09T11:17:11;102109.66;;;23.32;46.92
62617;BME280;62539;51.190;6.808;2023-04-09T11:19:37;102111.19;;;23.39;46.16
62617;BME280;62539;51.190;6.808;2023-04-09T11:22:04;102108.25;;;23.47;46.21
62617;BME280;62539;51.190;6.808;2023-04-09T11:24:44;102097.41;;;23.55;46.00
62617;BME280;62539;51.190;6.808;2023-04-09T11:27:15;102098.81;;;23.65;46.24
62617;BME280;62539;51.190;6.808;2023-04-09T11:29:43;102099.41;;;23.73;46.07
62617;BME280;62539;51.190;6.808;2023-04-09T11:32:09;102100.91;;;23.81;45.99
62617;BME280;62539;51.190;6.808;2023-04-09T11:34:36;102099.31;;;23.76;45.84
62617;BME280;62539;51.190;6.808;2023-04-09T11:37:03;102093.78;;;23.83;45.98
62617;BME280;62539;51.190;6.808;2023-04-09T11:39:35;102089.00;;;23.92;45.69
62617;BME280;62539;51.190;6.808;2023-04-09T11:42:01;102093.09;;;24.01;45.79
62617;BME280;62539;51.190;6.808;2023-04-09T11:44:27;102098.06;;;24.11;45.54
62617;BME280;62539;51.190;6.808;2023-04-09T11:46:52;102096.13;;;24.16;45.14
62617;BME280;62539;51.190;6.808;2023-04-09T11:49:18;102087.81;;;24.25;44.99
62617;BME280;62539;51.190;6.808;2023-04-09T11:51:44;102086.53;;;24.35;44.77
62617;BME280;62539;51.190;6.808;2023-04-09T11:54:10;102080.88;;;24.45;44.74
62617;BME280;62539;51.190;6.808;2023-04-09T11:56:36;102085.38;;;24.43;44.95
62617;BME280;62539;51.190;6.808;2023-04-09T11:59:02;102087.91;;;24.46;44.73
62617;BME280;62539;51.190;6.808;2023-04-09T12:01:31;102079.94;;;24.46;44.65
62617;BME280;62539;51.190;6.808;2023-04-09T12:03:58;102082.06;;;24.60;44.67
62617;BME280;62539;51.190;6.808;2023-04-09T12:06:25;102080.69;;;24.72;44.17
62617;BME280;62539;51.190;6.808;2023-04-09T12:08:55;102081.88;;;24.64;44.28
62617;BME280;62539;51.190;6.808;2023-04-09T12:11:29;102084.53;;;24.64;44.24
62617;BME280;62539;51.190;6.808;2023-04-09T12:14:00;102084.19;;;24.74;43.92
62617;BME280;62539;51.190;6.808;2023-04-09T12:16:35;102091.63;;;24.64;44.07
62617;BME280;62539;51.190;6.808;2023-04-09T12:19:01;102079.09;;;24.67;44.39
62617;BME280;62539;51.190;6.808;2023-04-09T12:21:47;102079.06;;;24.91;43.71
62617;BME280;62539;51.190;6.808;2023-04-09T12:24:18;102076.78;;;24.82;44.01
62617;BME280;62539;51.190;6.808;2023-04-09T12:26:46;102073.56;;;24.96;43.48
62617;BME280;62539;51.190;6.808;2023-04-09T12:29:13;102069.28;;;25.14;43.28
62617;BME280;62539;51.190;6.808;2023-04-09T12:31:41;102069.41;;;25.32;42.69
62617;BME280;62539;51.190;6.808;2023-04-09T12:34:07;102084.78;;;25.25;43.21
62617;BME280;62539;51.190;6.808;2023-04-09T12:36:32;102079.22;;;25.09;43.06
62617;BME280;62539;51.190;6.808;2023-04-09T12:38:58;102073.63;;;24.94;43.72
62617;BME280;62539;51.190;6.808;2023-04-09T12:41:23;102077.34;;;24.90;43.44
62617;BME280;62539;51.190;6.808;2023-04-09T12:43:49;102072.53;;;24.78;43.79
62617;BME280;62539;51.190;6.808;2023-04-09T12:46:16;102076.53;;;24.66;43.89
62617;BME280;62539;51.190;6.808;2023-04-09T12:48:43;102080.28;;;24.60;44.08
62617;BME280;62539;51.190;6.808;2023-04-09T12:51:10;102080.47;;;24.56;44.16
62617;BME280;62539;51.190;6.808;2023-04-09T12:53:36;102079.78;;;24.50;44.43
62617;BME280;62539;51.190;6.808;2023-04-09T12:56:01;102071.16;;;24.45;44.51
62617;BME280;62539;51.190;6.808;2023-04-09T12:58:27;102063.44;;;24.61;44.22
62617;BME280;62539;51.190;6.808;2023-04-09T13:00:52;102063.88;;;24.73;44.07
62617;BME280;62539;51.190;6.808;2023-04-09T13:03:19;102063.84;;;25.17;43.08
62617;BME280;62539;51.190;6.808;2023-04-09T13:05:45;102060.75;;;25.28;42.88
62617;BME280;62539;51.190;6.808;2023-04-09T13:08:11;102060.63;;;25.09;43.13
62617;BME280;62539;51.190;6.808;2023-04-09T13:10:36;102065.16;;;25.07;43.34
62617;BME280;62539;51.190;6.808;2023-04-09T13:13:03;102057.97;;;25.52;42.36